Accueil
METAR-TAF:

METAR-TAF

Aéroports :

Aéroport international Roi-Abdelaziz

Djeddah, Arabie saoudite

latitude: 21-42N, longitude: 039-11E, altitude: 15 m

Observation

Le bulletin a été fait il y a 13 minutes, à 14:00 UTC
Vent 4 kt de ouest
Température 33°C
Humidité 49%
Pression 1011 hPa
Visibilité 10 km ou plus
Nuages épars à une hauteur de 4000 ft
Nuages épars à une hauteur de 10000 ft

METAR: OEJN 231400Z 27004KT 9999 SCT040 SCT100 33/21 Q1011 NOSIG

Heure: 17:13 (14:13 UTC)

Prévision

Le bulletin a été fait il y a 3 heures et 13 minutes, à 11:00 UTC
Prévision valable du 23 à 12 UTC au 24 à 18 UTC
Vent 10 kt de ouest/sud-ouest
Visibilité 10 km ou plus
Quelques nuages à une hauteur de 4000 ft
Nuages fragmentés à une hauteur de 10000 ft
Evoluant progressivement
du 23 à 18 UTC au 23 à 20 UTC
Vent 3 kt de direction variable

TAF: OEJN 231100Z 2312/2418 25010KT 9999 FEW040 BKN100 BECMG 2318/2320 VRB03KT

Observations et prévisions météorologiques de plus de 4000 aéroports (messages METAR et TAF).

Les stations disponibles sont représentées par des disques jaunes et rouges sur la carte.

Passer la souris dessus pour voir le nom de la station.

Cliquer dessus pour voir les observations et prévisions météorologiques.

Pour changer de carte: cliquez sur les boutons verts avec une croix noire pour zoomer, sur le bouton vert avec un tiret pour effectuer un zoom arrière, ou sur les flèches vertes pour les cartes adjacentes.


METAR-TAF: